createdAt,value
2023-09-06T00:01:07.674Z,13.15
2023-09-06T00:03:37.408Z,13.09
2023-09-06T00:06:06.724Z,13.01
2023-09-06T00:08:35.541Z,13.01
2023-09-06T00:11:05.519Z,12.97
2023-09-06T00:13:34.357Z,13.00
2023-09-06T00:16:02.084Z,12.95
2023-09-06T00:18:29.989Z,12.95
2023-09-06T00:20:58.927Z,12.90
2023-09-06T00:23:27.948Z,12.86
2023-09-06T00:25:55.752Z,12.84
2023-09-06T00:28:25.407Z,12.73
2023-09-06T00:30:53.193Z,12.76
2023-09-06T00:33:22.407Z,12.72
2023-09-06T00:35:50.093Z,12.65
2023-09-06T00:38:17.658Z,12.60
2023-09-06T00:40:52.745Z,12.54
2023-09-06T00:43:20.452Z,12.44
2023-09-06T00:45:49.557Z,12.38
2023-09-06T00:48:22.672Z,12.32
2023-09-06T00:50:52.446Z,12.33
2023-09-06T00:53:21.144Z,12.28
2023-09-06T00:55:50.722Z,12.25
2023-09-06T00:58:19.689Z,12.14
2023-09-06T01:00:48.225Z,12.09
2023-09-06T01:03:16.878Z,12.06
2023-09-06T01:06:07.074Z,12.04
2023-09-06T01:08:38.219Z,12.02
2023-09-06T01:11:23.474Z,11.99
2023-09-06T01:13:52.988Z,11.95
2023-09-06T01:16:24.561Z,11.93
2023-09-06T01:18:52.276Z,11.93
2023-09-06T01:21:21.619Z,11.96
2023-09-06T01:23:52.133Z,11.92
2023-09-06T01:26:20.304Z,11.97
2023-09-06T01:28:50.553Z,11.91
2023-09-06T01:31:18.710Z,11.90
2023-09-06T01:33:46.659Z,11.88
2023-09-06T01:36:14.331Z,11.89
2023-09-06T01:38:43.022Z,11.83
2023-09-06T01:41:13.346Z,11.87
2023-09-06T01:43:41.574Z,11.86
2023-09-06T01:46:09.282Z,11.85
2023-09-06T01:48:37.686Z,11.87
2023-09-06T01:51:05.775Z,11.86
2023-09-06T01:53:33.352Z,11.84
2023-09-06T01:56:01.441Z,11.79
2023-09-06T01:58:33.714Z,11.80
2023-09-06T02:01:01.934Z,11.79
2023-09-06T02:03:29.898Z,11.77
2023-09-06T02:05:57.527Z,11.79
2023-09-06T02:08:26.880Z,11.73
2023-09-06T02:10:54.749Z,11.79
2023-09-06T02:13:22.369Z,11.79
2023-09-06T02:15:51.428Z,11.78
2023-09-06T02:18:19.691Z,11.75
2023-09-06T02:20:49.784Z,11.71
2023-09-06T02:23:17.498Z,11.75
2023-09-06T02:25:46.309Z,11.73
2023-09-06T02:28:15.650Z,11.76
2023-09-06T02:30:43.299Z,11.75
2023-09-06T02:33:13.646Z,11.75
2023-09-06T02:35:41.937Z,11.71
2023-09-06T02:38:10.216Z,11.65
2023-09-06T02:40:37.971Z,11.60
2023-09-06T02:43:06.161Z,11.63
2023-09-06T02:45:38.856Z,11.53
2023-09-06T02:48:08.527Z,11.51
2023-09-06T02:50:37.543Z,11.44
2023-09-06T02:53:05.800Z,11.36
2023-09-06T02:55:36.403Z,11.35
2023-09-06T02:58:06.148Z,11.33
2023-09-06T03:00:37.262Z,11.28
2023-09-06T03:03:07.427Z,11.20
2023-09-06T03:05:42.645Z,11.15
2023-09-06T03:08:10.858Z,11.12
2023-09-06T03:10:38.881Z,11.07
2023-09-06T03:13:06.815Z,11.05
2023-09-06T03:15:35.537Z,11.05
2023-09-06T03:18:06.040Z,11.06
2023-09-06T03:20:34.178Z,11.09
2023-09-06T03:23:10.311Z,11.08
2023-09-06T03:25:41.401Z,11.04
2023-09-06T03:28:09.673Z,10.99
2023-09-06T03:30:37.319Z,10.97
2023-09-06T03:33:06.397Z,10.97
2023-09-06T03:35:33.998Z,10.89
2023-09-06T03:38:03.221Z,10.88
2023-09-06T03:40:37.052Z,10.85
2023-09-06T03:43:15.811Z,10.84
2023-09-06T03:45:45.238Z,10.81
2023-09-06T03:48:14.120Z,10.76
2023-09-06T03:50:42.533Z,10.74
2023-09-06T03:53:14.693Z,10.74
2023-09-06T03:55:43.551Z,10.70
2023-09-06T03:58:12.250Z,10.71
2023-09-06T04:00:43.933Z,10.67
2023-09-06T04:03:13.727Z,10.66
2023-09-06T04:05:43.168Z,10.64
2023-09-06T04:08:12.295Z,10.66
2023-09-06T04:10:41.509Z,10.65
2023-09-06T04:13:10.203Z,10.66
2023-09-06T04:15:38.644Z,10.60
2023-09-06T04:18:07.522Z,10.56
2023-09-06T04:20:37.277Z,10.51
2023-09-06T04:23:06.639Z,10.46
2023-09-06T04:25:42.628Z,10.45
2023-09-06T04:28:10.859Z,10.39
2023-09-06T04:30:39.515Z,10.40
2023-09-06T04:33:09.208Z,10.42
2023-09-06T04:35:40.035Z,10.42
2023-09-06T04:38:10.896Z,10.43
2023-09-06T04:40:40.014Z,10.37
2023-09-06T04:43:08.695Z,10.36
2023-09-06T04:45:38.731Z,10.33
2023-09-06T04:48:07.128Z,10.36
2023-09-06T04:50:34.959Z,10.34
2023-09-06T04:53:02.588Z,10.36
2023-09-06T04:55:34.944Z,10.38
2023-09-06T04:58:04.499Z,10.37
2023-09-06T05:00:34.392Z,10.32
2023-09-06T05:03:02.664Z,10.37
2023-09-06T05:05:31.382Z,10.39
2023-09-06T05:07:59.202Z,10.44
2023-09-06T05:10:26.746Z,10.54
2023-09-06T05:12:54.318Z,10.59
2023-09-06T05:15:23.306Z,10.65
2023-09-06T05:17:50.923Z,10.73
2023-09-06T05:20:25.657Z,10.75
2023-09-06T05:22:53.364Z,10.79
2023-09-06T05:25:20.964Z,10.92
2023-09-06T05:27:48.609Z,11.03
2023-09-06T05:30:16.485Z,11.09
2023-09-06T05:32:45.426Z,11.22
2023-09-06T05:35:13.223Z,11.34
2023-09-06T05:37:41.169Z,11.42
2023-09-06T05:40:09.866Z,11.48
2023-09-06T05:42:38.230Z,11.55
2023-09-06T05:45:06.918Z,11.67
2023-09-06T05:47:37.208Z,11.76
2023-09-06T05:50:07.764Z,11.87
2023-09-06T05:52:35.597Z,11.98
2023-09-06T05:55:03.347Z,12.11
2023-09-06T05:57:32.172Z,12.28
2023-09-06T05:59:59.873Z,12.39
2023-09-06T06:02:27.669Z,12.52
2023-09-06T06:04:56.353Z,12.61
2023-09-06T06:07:24.491Z,12.72
2023-09-06T06:09:52.073Z,12.77
2023-09-06T06:12:23.740Z,12.94
2023-09-06T06:14:52.923Z,12.99
2023-09-06T06:17:20.707Z,13.03
2023-09-06T06:19:50.196Z,13.06
2023-09-06T06:22:17.871Z,13.09
2023-09-06T06:24:48.735Z,13.22
2023-09-06T06:27:16.509Z,13.35
2023-09-06T06:29:44.151Z,13.54
2023-09-06T06:32:11.898Z,13.65
2023-09-06T06:34:40.487Z,13.75
2023-09-06T06:37:08.388Z,13.92
2023-09-06T06:39:36.085Z,14.02
2023-09-06T06:42:05.325Z,14.22
2023-09-06T06:44:32.865Z,14.37
2023-09-06T06:47:02.452Z,14.58
2023-09-06T06:49:30.036Z,14.74
2023-09-06T06:51:57.640Z,14.97
2023-09-06T06:54:26.124Z,15.07
2023-09-06T06:56:53.757Z,15.22
2023-09-06T06:59:22.704Z,15.33
2023-09-06T07:01:50.416Z,15.48
2023-09-06T07:04:18.072Z,15.56
2023-09-06T07:06:45.736Z,15.61
2023-09-06T07:09:13.304Z,15.74
2023-09-06T07:11:40.937Z,15.93
2023-09-06T07:14:08.566Z,15.92
2023-09-06T07:16:37.698Z,16.12
2023-09-06T07:19:06.340Z,16.18
2023-09-06T07:21:33.970Z,16.32
2023-09-06T07:24:01.559Z,16.32
2023-09-06T07:26:29.172Z,16.57
2023-09-06T07:28:56.800Z,16.74
2023-09-06T07:31:24.470Z,16.87
2023-09-06T07:33:53.589Z,16.93
2023-09-06T07:36:21.378Z,17.04
2023-09-06T07:38:49.566Z,17.18
2023-09-06T07:41:18.426Z,17.29
2023-09-06T07:43:46.103Z,17.44
2023-09-06T07:46:13.808Z,17.63
2023-09-06T07:48:41.479Z,17.75
2023-09-06T07:51:13.280Z,17.76
2023-09-06T07:53:42.930Z,17.88
2023-09-06T07:56:10.694Z,18.06
2023-09-06T07:58:38.745Z,18.24
2023-09-06T08:01:18.060Z,18.27
2023-09-06T08:03:47.453Z,18.39
2023-09-06T08:06:17.547Z,18.50
2023-09-06T08:08:46.028Z,18.47
2023-09-06T08:11:13.899Z,18.66
2023-09-06T08:13:42.730Z,18.66
2023-09-06T08:16:13.361Z,18.77
2023-09-06T08:18:41.928Z,18.78
2023-09-06T08:21:09.839Z,18.92
2023-09-06T08:23:38.826Z,18.91
2023-09-06T08:26:06.370Z,18.82
2023-09-06T08:28:34.747Z,18.83
2023-09-06T08:31:03.171Z,18.97
2023-09-06T08:33:31.265Z,19.21
2023-09-06T08:35:59.652Z,19.14
2023-09-06T08:38:27.729Z,19.19
2023-09-06T08:40:56.660Z,19.21
2023-09-06T08:43:25.742Z,19.21
2023-09-06T08:45:53.425Z,19.26
2023-09-06T08:48:21.723Z,19.38
2023-09-06T08:50:49.943Z,19.52
2023-09-06T08:53:19.414Z,19.58
2023-09-06T08:55:47.636Z,19.73
2023-09-06T08:58:17.019Z,19.86
2023-09-06T09:00:44.798Z,19.95
2023-09-06T09:03:13.790Z,20.02
2023-09-06T09:05:41.520Z,20.14
2023-09-06T09:08:10.990Z,20.33
2023-09-06T09:10:38.739Z,20.45
2023-09-06T09:13:06.363Z,20.39
2023-09-06T09:15:35.803Z,20.60
2023-09-06T09:18:11.866Z,20.50
2023-09-06T09:20:41.339Z,20.36
2023-09-06T09:23:13.275Z,20.46
2023-09-06T09:25:48.047Z,20.49
2023-09-06T09:28:16.235Z,20.64
2023-09-06T09:30:47.318Z,20.49
2023-09-06T09:33:16.051Z,20.46
2023-09-06T09:35:45.479Z,20.62
2023-09-06T09:38:13.059Z,20.71
2023-09-06T09:43:11.663Z,20.74
2023-09-06T09:45:44.448Z,21.02
2023-09-06T09:48:13.696Z,21.13
2023-09-06T09:50:42.683Z,21.21
2023-09-06T09:55:48.130Z,21.31
2023-09-06T09:58:15.822Z,21.38
2023-09-06T10:00:43.663Z,21.47
2023-09-06T10:03:14.581Z,21.59
2023-09-06T10:05:43.695Z,21.71
2023-09-06T10:08:12.198Z,21.78
2023-09-06T10:10:41.331Z,21.89
2023-09-06T10:13:09.959Z,21.92
2023-09-06T10:15:38.677Z,21.85
2023-09-06T10:18:08.570Z,21.91
2023-09-06T10:20:38.474Z,21.91
2023-09-06T10:23:09.012Z,21.97
2023-09-06T10:25:40.872Z,22.00
2023-09-06T10:28:09.584Z,22.06
2023-09-06T10:30:45.049Z,22.10
2023-09-06T10:33:13.406Z,22.08
2023-09-06T10:35:44.642Z,22.08
2023-09-06T10:38:15.934Z,22.21
2023-09-06T10:41:07.965Z,22.20
2023-09-06T10:43:57.132Z,22.22
2023-09-06T10:46:29.895Z,22.15
2023-09-06T10:49:20.601Z,22.23
2023-09-06T10:52:09.659Z,22.26
2023-09-06T10:54:41.463Z,22.37
2023-09-06T10:57:11.587Z,22.45
2023-09-06T10:59:40.390Z,22.54
2023-09-06T11:02:12.941Z,22.54
2023-09-06T11:04:41.073Z,22.58
2023-09-06T11:07:12.089Z,22.63
2023-09-06T11:09:44.406Z,22.70
2023-09-06T11:12:13.869Z,22.72
2023-09-06T11:14:41.696Z,22.78
2023-09-06T11:17:09.595Z,22.86
2023-09-06T11:19:37.753Z,23.03
2023-09-06T11:22:07.352Z,23.20
2023-09-06T11:24:37.000Z,23.31
2023-09-06T11:27:18.623Z,23.45
2023-09-06T11:29:46.211Z,23.44
2023-09-06T11:32:14.862Z,23.45
2023-09-06T11:34:46.067Z,23.45
2023-09-06T11:37:16.658Z,23.38
2023-09-06T11:39:46.543Z,23.42
2023-09-06T11:42:16.852Z,23.47
2023-09-06T11:44:49.056Z,23.52
2023-09-06T11:47:18.039Z,23.62
2023-09-06T11:49:46.999Z,23.65
2023-09-06T11:52:17.263Z,23.77
2023-09-06T11:54:48.578Z,24.09
2023-09-06T11:57:24.999Z,24.23
2023-09-06T11:59:58.592Z,24.34
2023-09-06T12:02:28.369Z,24.47
2023-09-06T12:05:01.845Z,24.41
2023-09-06T12:07:29.609Z,24.46
2023-09-06T12:10:00.697Z,24.46
2023-09-06T12:12:28.335Z,24.54
2023-09-06T12:14:56.015Z,24.77
2023-09-06T12:17:26.420Z,24.96
2023-09-06T12:20:00.312Z,25.12
2023-09-06T12:22:27.962Z,25.22
2023-09-06T12:24:56.351Z,25.44
2023-09-06T12:27:26.443Z,25.69
2023-09-06T12:29:54.756Z,26.14
2023-09-06T12:32:24.492Z,26.42
2023-09-06T12:34:53.546Z,26.65
2023-09-06T12:37:22.027Z,27.01
2023-09-06T12:39:49.742Z,27.67
2023-09-06T12:42:17.527Z,29.31
2023-09-06T12:44:46.423Z,30.65
2023-09-06T12:47:17.596Z,32.15
2023-09-06T12:49:45.217Z,33.63
2023-09-06T12:52:14.947Z,35.03
2023-09-06T12:54:42.490Z,35.84
2023-09-06T12:57:10.121Z,36.14
2023-09-06T12:59:37.723Z,36.18
2023-09-06T13:02:07.324Z,36.33
2023-09-06T13:04:35.076Z,37.25
2023-09-06T13:07:02.976Z,37.92
2023-09-06T13:09:30.582Z,38.30
2023-09-06T13:11:58.877Z,38.12
2023-09-06T13:14:26.520Z,37.38
2023-09-06T13:16:54.330Z,37.11
2023-09-06T13:19:23.501Z,37.47
2023-09-06T13:21:51.225Z,38.10
2023-09-06T13:24:18.949Z,38.52
2023-09-06T13:26:48.190Z,37.71
2023-09-06T13:29:15.963Z,38.71
2023-09-06T13:31:43.633Z,39.12
2023-09-06T13:34:11.403Z,39.46
2023-09-06T13:36:40.295Z,39.76
2023-09-06T13:39:08.627Z,39.44
2023-09-06T13:41:36.914Z,39.70
2023-09-06T13:44:05.162Z,40.08
2023-09-06T13:46:34.049Z,41.03
2023-09-06T13:49:01.956Z,41.95
2023-09-06T13:51:29.858Z,41.11
2023-09-06T13:53:58.940Z,41.08
2023-09-06T13:56:26.511Z,41.60
2023-09-06T13:58:54.060Z,41.95
2023-09-06T14:01:21.701Z,42.42
2023-09-06T14:03:49.518Z,42.72
2023-09-06T14:06:17.105Z,43.41
2023-09-06T14:08:44.759Z,42.58
2023-09-06T14:11:14.075Z,42.75
2023-09-06T14:13:41.734Z,42.45
2023-09-06T14:16:10.259Z,41.94
2023-09-06T14:18:37.934Z,41.42
2023-09-06T14:21:05.498Z,40.36
2023-09-06T14:23:33.114Z,40.67
2023-09-06T14:26:00.830Z,40.27
2023-09-06T14:28:30.088Z,39.83
2023-09-06T14:30:58.551Z,39.37
2023-09-06T14:33:26.237Z,39.72
2023-09-06T14:35:54.104Z,39.45
2023-09-06T14:38:22.869Z,39.70
2023-09-06T14:40:50.775Z,39.93
2023-09-06T14:43:20.054Z,40.26
2023-09-06T14:45:49.054Z,39.82
2023-09-06T14:48:16.803Z,40.48
2023-09-06T14:50:44.482Z,39.81
2023-09-06T14:53:12.318Z,40.74
2023-09-06T14:55:39.931Z,41.32
2023-09-06T14:58:07.496Z,40.66
2023-09-06T15:00:35.189Z,38.98
2023-09-06T15:03:04.799Z,36.31
2023-09-06T15:05:32.923Z,33.72
2023-09-06T15:08:01.706Z,32.02
2023-09-06T15:10:33.109Z,30.47
2023-09-06T15:13:01.229Z,30.01
2023-09-06T15:15:28.838Z,29.20
2023-09-06T15:17:59.421Z,28.38
2023-09-06T15:20:30.191Z,27.85
2023-09-06T15:22:57.972Z,27.54
2023-09-06T15:25:26.863Z,27.23
2023-09-06T15:27:54.870Z,27.08
2023-09-06T15:30:23.534Z,26.73
2023-09-06T15:32:51.303Z,26.53
2023-09-06T15:35:18.915Z,26.41
2023-09-06T15:38:01.353Z,26.18
2023-09-06T15:40:28.973Z,26.09
2023-09-06T15:42:56.541Z,25.94
2023-09-06T15:45:24.176Z,25.85
2023-09-06T15:47:51.902Z,25.84
2023-09-06T15:50:21.029Z,25.67
2023-09-06T15:52:49.583Z,25.57
2023-09-06T15:55:18.540Z,25.49
2023-09-06T15:57:46.998Z,25.39
2023-09-06T16:00:30.931Z,25.32
2023-09-06T16:03:00.546Z,25.21
2023-09-06T16:05:28.564Z,25.14
2023-09-06T16:07:56.870Z,25.05
2023-09-06T16:10:26.183Z,24.94
2023-09-06T16:12:53.862Z,24.86
2023-09-06T16:15:23.693Z,24.72
2023-09-06T16:17:51.623Z,24.71
2023-09-06T16:20:19.559Z,24.65
2023-09-06T16:22:48.147Z,24.58
2023-09-06T16:25:15.732Z,24.53
2023-09-06T16:27:46.830Z,24.43
2023-09-06T16:30:14.947Z,24.32
2023-09-06T16:32:42.961Z,24.34
2023-09-06T16:35:10.724Z,24.27
2023-09-06T16:37:40.596Z,24.28
2023-09-06T16:40:11.986Z,24.25
2023-09-06T16:42:40.911Z,24.09
2023-09-06T16:45:11.090Z,24.03
2023-09-06T16:47:38.663Z,23.92
2023-09-06T16:50:07.557Z,23.81
2023-09-06T16:52:36.867Z,23.66
2023-09-06T16:55:04.894Z,23.68
2023-09-06T16:57:32.509Z,23.55
2023-09-06T17:00:00.060Z,23.43
2023-09-06T17:02:29.099Z,23.36
2023-09-06T17:04:56.713Z,23.21
2023-09-06T17:07:24.277Z,23.11
2023-09-06T17:09:51.929Z,23.03
2023-09-06T17:12:21.272Z,22.91
2023-09-06T17:14:48.907Z,22.82
2023-09-06T17:17:17.945Z,22.73
2023-09-06T17:19:46.902Z,22.57
2023-09-06T17:22:14.500Z,22.45
2023-09-06T17:24:42.560Z,22.37
2023-09-06T17:27:10.147Z,22.26
2023-09-06T17:29:41.029Z,22.16
2023-09-06T17:32:08.813Z,22.08
2023-09-06T17:34:36.502Z,21.96
2023-09-06T17:37:07.126Z,21.80
2023-09-06T17:39:34.801Z,21.69
2023-09-06T17:42:02.911Z,21.56
2023-09-06T17:44:32.650Z,21.52
2023-09-06T17:47:02.753Z,21.45
2023-09-06T17:49:30.771Z,21.40
2023-09-06T17:51:59.516Z,21.29
2023-09-06T17:54:30.131Z,21.23
2023-09-06T17:57:00.518Z,21.19
2023-09-06T17:59:29.057Z,21.10
2023-09-06T18:01:57.453Z,21.00
2023-09-06T18:04:25.832Z,20.93
2023-09-06T18:06:54.812Z,20.93
2023-09-06T18:09:24.234Z,20.82
2023-09-06T18:11:54.050Z,20.72
2023-09-06T18:14:22.141Z,20.66
2023-09-06T18:16:49.805Z,20.61
2023-09-06T18:19:17.790Z,20.68
2023-09-06T18:21:45.391Z,20.66
2023-09-06T18:24:15.509Z,20.61
2023-09-06T18:26:54.213Z,20.53
2023-09-06T18:29:33.139Z,20.45
2023-09-06T18:32:00.854Z,20.36
2023-09-06T18:34:28.521Z,20.25
2023-09-06T18:36:56.265Z,20.13
2023-09-06T18:39:23.861Z,19.97
2023-09-06T18:41:52.313Z,19.96
2023-09-06T18:44:19.873Z,19.88
2023-09-06T18:46:48.801Z,19.76
2023-09-06T18:49:15.457Z,19.69
2023-09-06T18:51:42.982Z,19.63
2023-09-06T18:54:10.550Z,19.65
2023-09-06T18:56:38.375Z,19.61
2023-09-06T18:59:06.392Z,19.56
2023-09-06T19:01:34.104Z,19.44
2023-09-06T19:04:03.068Z,19.45
2023-09-06T19:06:35.355Z,19.47
2023-09-06T19:09:09.180Z,19.53
2023-09-06T19:11:37.604Z,19.58
2023-09-06T19:14:05.623Z,19.61
2023-09-06T19:16:34.016Z,19.71
2023-09-06T19:19:03.029Z,19.77
2023-09-06T19:21:30.703Z,19.86
2023-09-06T19:23:58.320Z,19.93
2023-09-06T19:26:26.010Z,20.08
2023-09-06T19:28:53.645Z,20.08
2023-09-06T19:31:21.400Z,20.00
2023-09-06T19:33:49.021Z,20.05
2023-09-06T19:36:18.499Z,20.22
2023-09-06T19:38:46.067Z,20.19
2023-09-06T19:41:13.657Z,20.18
2023-09-06T19:43:42.063Z,20.12
2023-09-06T19:46:09.692Z,20.07
2023-09-06T19:48:47.107Z,20.06
2023-09-06T19:51:23.899Z,20.06
2023-09-06T19:53:51.445Z,20.04
2023-09-06T19:56:19.014Z,19.98
2023-09-06T19:58:48.670Z,19.98
2023-09-06T20:01:17.602Z,19.94
2023-09-06T20:03:45.558Z,19.91
2023-09-06T20:06:13.307Z,19.90
2023-09-06T20:08:43.719Z,19.84
2023-09-06T20:11:11.513Z,19.70
2023-09-06T20:13:39.131Z,19.69
2023-09-06T20:16:06.947Z,19.66
2023-09-06T20:18:35.489Z,19.59
2023-09-06T20:21:06.813Z,19.59
2023-09-06T20:23:36.116Z,19.57
2023-09-06T20:26:05.332Z,19.57
2023-09-06T20:28:33.480Z,19.53
2023-09-06T20:31:01.191Z,19.53
2023-09-06T20:33:29.067Z,19.52
2023-09-06T20:35:59.450Z,19.43
2023-09-06T20:38:27.119Z,19.34
2023-09-06T20:41:01.732Z,19.23
2023-09-06T20:43:31.421Z,19.27
2023-09-06T20:45:59.440Z,19.26
2023-09-06T20:48:29.139Z,19.20
2023-09-06T20:51:01.710Z,19.15
2023-09-06T20:53:31.705Z,19.14
2023-09-06T20:56:00.426Z,19.14
2023-09-06T20:58:28.387Z,19.05
2023-09-06T21:00:57.845Z,19.04
2023-09-06T21:03:26.831Z,18.91
2023-09-06T21:05:57.500Z,18.91
2023-09-06T21:08:25.381Z,18.98
2023-09-06T21:10:53.026Z,18.89
2023-09-06T21:13:20.599Z,18.87
2023-09-06T21:15:48.441Z,18.92
2023-09-06T21:18:17.524Z,18.87
2023-09-06T21:20:45.638Z,18.88
2023-09-06T21:23:14.115Z,18.91
2023-09-06T21:25:42.332Z,18.93
2023-09-06T21:28:10.155Z,18.94
2023-09-06T21:30:41.383Z,18.86
2023-09-06T21:33:09.700Z,18.89
2023-09-06T21:35:43.741Z,18.72
2023-09-06T21:38:11.522Z,18.77
2023-09-06T21:40:40.815Z,18.60
2023-09-06T21:43:17.728Z,18.63
2023-09-06T21:45:46.512Z,18.46
2023-09-06T21:48:14.460Z,18.46
2023-09-06T21:50:47.457Z,18.41
2023-09-06T21:53:16.177Z,18.31
2023-09-06T21:55:43.869Z,18.22
2023-09-06T21:58:11.875Z,18.15
2023-09-06T22:00:40.061Z,18.01
2023-09-06T22:03:08.071Z,17.74
2023-09-06T22:05:35.736Z,17.58
2023-09-06T22:08:05.235Z,17.51
2023-09-06T22:10:32.822Z,17.43
2023-09-06T22:13:00.596Z,17.33
2023-09-06T22:15:28.421Z,17.24
2023-09-06T22:17:56.061Z,17.16
2023-09-06T22:20:24.379Z,17.04
2023-09-06T22:22:52.017Z,16.96
2023-09-06T22:25:20.997Z,16.89
2023-09-06T22:27:51.167Z,16.75
2023-09-06T22:30:18.996Z,16.62
2023-09-06T22:32:46.643Z,16.59
2023-09-06T22:35:14.251Z,16.55
2023-09-06T22:37:43.480Z,16.43
2023-09-06T22:40:12.134Z,16.40
2023-09-06T22:42:41.212Z,16.38
2023-09-06T22:45:10.429Z,16.33
2023-09-06T22:47:38.057Z,16.35
2023-09-06T22:50:06.553Z,16.31
2023-09-06T22:52:34.241Z,16.27
2023-09-06T22:55:02.909Z,16.18
2023-09-06T22:57:30.553Z,16.22
2023-09-06T22:59:59.454Z,16.18
2023-09-06T23:02:27.093Z,16.17
2023-09-06T23:04:55.952Z,16.13
2023-09-06T23:07:23.844Z,16.10
2023-09-06T23:09:51.644Z,16.07
2023-09-06T23:12:19.901Z,16.02
2023-09-06T23:14:48.428Z,15.93
2023-09-06T23:17:22.908Z,15.91
2023-09-06T23:19:54.144Z,15.82
2023-09-06T23:22:24.222Z,15.76
2023-09-06T23:24:57.320Z,15.72
2023-09-06T23:27:26.974Z,15.66
2023-09-06T23:29:58.997Z,15.64
2023-09-06T23:32:31.963Z,15.66
2023-09-06T23:34:59.750Z,15.52
2023-09-06T23:37:29.335Z,15.46
2023-09-06T23:40:01.690Z,15.39
2023-09-06T23:42:29.696Z,15.36
2023-09-06T23:44:57.935Z,15.25
2023-09-06T23:47:27.164Z,15.12
2023-09-06T23:49:56.102Z,15.09
2023-09-06T23:52:24.014Z,15.02
2023-09-06T23:54:51.794Z,14.92
2023-09-06T23:57:19.463Z,14.85
2023-09-06T23:59:48.078Z,14.86
